Emmen, Emmen Air Base (LSME)

NameEmmen Air Base
CityEmmen
CountrySwitzerland
ICAOLSME
IATAEML
Altitude426 m
CoordinatesGoogle Map
Live Air TrafficLiveATC.net
METARLSME 200350Z AUTO 00000KT 9999NDV NCD 04/01 Q1026 RMK
2019-04-20 03:50:00 Wind: North (0°) 0 m/s - Visibility: > 10000 m - Temperature: 4 °C - Dew point: 1 °C - Humidity: 81% - Pressure: 1026 hPa
Statistics

The table below shows the detailed information of all flights to/from Emmen, Emmen Air Base (LSME).